createdAt,value
2023-03-11T00:00:30.457Z,6.47
2023-03-11T00:02:59.528Z,10.73
2023-03-11T00:05:29.102Z,5.87
2023-03-11T00:07:56.511Z,9.23
2023-03-11T00:10:30.347Z,4.43
2023-03-11T00:13:00.926Z,6.57
2023-03-11T00:15:28.890Z,4.73
2023-03-11T00:17:56.141Z,4.17
2023-03-11T00:20:25.165Z,7.80
2023-03-11T00:22:52.101Z,4.33
2023-03-11T00:25:19.373Z,13.73
2023-03-11T00:27:48.243Z,8.10
2023-03-11T00:30:19.195Z,3.43
2023-03-11T00:32:48.946Z,3.53
2023-03-11T00:35:19.863Z,7.10
2023-03-11T00:37:47.926Z,3.90
2023-03-11T00:40:17.798Z,4.27
2023-03-11T00:42:44.925Z,11.17
2023-03-11T00:45:12.319Z,3.80
2023-03-11T00:47:39.681Z,5.60
2023-03-11T00:50:09.637Z,10.23
2023-03-11T00:52:36.345Z,4.80
2023-03-11T00:55:03.141Z,6.90
2023-03-11T00:57:32.348Z,3.70
2023-03-11T00:59:59.893Z,7.07
2023-03-11T01:02:28.768Z,4.53
2023-03-11T01:04:56.246Z,6.63
2023-03-11T01:07:23.196Z,5.93
2023-03-11T01:09:50.096Z,5.20
2023-03-11T01:12:19.128Z,6.17
2023-03-11T01:14:45.796Z,8.40
2023-03-11T01:17:12.374Z,8.20
2023-03-11T01:19:39.129Z,6.20
2023-03-11T01:22:05.902Z,13.50
2023-03-11T01:24:32.806Z,8.90
2023-03-11T01:26:59.609Z,2.73
2023-03-11T01:29:26.324Z,4.60
2023-03-11T01:31:53.062Z,4.03
2023-03-11T01:34:19.805Z,5.03
2023-03-11T01:36:46.555Z,4.20
2023-03-11T01:39:13.207Z,5.43
2023-03-11T01:41:42.533Z,4.70
2023-03-11T01:44:12.381Z,2.27
2023-03-11T01:46:54.515Z,4.10
2023-03-11T01:49:22.476Z,7.07
2023-03-11T01:51:53.029Z,6.70
2023-03-11T01:54:31.032Z,5.90
2023-03-11T01:56:59.593Z,5.97
2023-03-11T01:59:33.975Z,6.07
2023-03-11T02:02:13.002Z,3.83
2023-03-11T02:04:40.948Z,6.20
2023-03-11T02:07:09.603Z,4.03
2023-03-11T02:09:36.257Z,5.30
2023-03-11T02:12:07.713Z,7.20
2023-03-11T02:14:36.004Z,4.63
2023-03-11T02:17:03.561Z,3.23
2023-03-11T02:19:45.320Z,8.17
2023-03-11T02:22:13.709Z,4.67
2023-03-11T02:24:55.581Z,6.27
2023-03-11T02:27:23.729Z,6.90
2023-03-11T02:29:54.255Z,5.50
2023-03-11T02:32:21.810Z,2.30
2023-03-11T02:34:48.700Z,5.17
2023-03-11T02:37:17.831Z,4.20
2023-03-11T02:39:47.966Z,3.93
2023-03-11T02:42:32.427Z,8.80
2023-03-11T02:45:04.498Z,5.27
2023-03-11T02:47:35.097Z,5.47
2023-03-11T02:50:01.921Z,5.03
2023-03-11T02:52:36.171Z,8.90
2023-03-11T02:55:03.626Z,6.23
2023-03-11T02:57:30.340Z,8.23
2023-03-11T02:59:57.250Z,6.43
2023-03-11T03:02:26.188Z,7.23
2023-03-11T03:04:52.922Z,10.57
2023-03-11T03:07:19.517Z,4.37
2023-03-11T03:09:46.138Z,5.83
2023-03-11T03:12:12.757Z,6.00
2023-03-11T03:14:39.641Z,9.47
2023-03-11T03:17:06.658Z,5.60
2023-03-11T03:19:33.353Z,6.57
2023-03-11T03:21:59.990Z,8.40
2023-03-11T03:24:26.808Z,8.00
2023-03-11T03:26:53.495Z,3.87
2023-03-11T03:29:22.513Z,3.57
2023-03-11T03:31:49.391Z,4.23
2023-03-11T03:34:16.073Z,6.23
2023-03-11T03:36:45.259Z,7.23
2023-03-11T03:39:12.056Z,5.77
2023-03-11T03:41:40.914Z,6.73
2023-03-11T03:44:07.601Z,11.70
2023-03-11T03:46:34.295Z,5.17
2023-03-11T03:49:00.980Z,6.90
2023-03-11T03:51:27.729Z,9.17
2023-03-11T03:53:56.883Z,6.43
2023-03-11T03:56:23.531Z,7.50
2023-03-11T03:58:50.072Z,10.50
2023-03-11T04:01:17.032Z,4.40
2023-03-11T04:03:43.998Z,8.40
2023-03-11T04:06:17.862Z,3.37
2023-03-11T04:08:47.370Z,12.00
2023-03-11T04:11:14.471Z,7.10
2023-03-11T04:13:48.232Z,8.23
2023-03-11T04:16:20.993Z,13.50
2023-03-11T04:18:48.232Z,10.63
2023-03-11T04:21:14.980Z,3.57
2023-03-11T04:23:41.670Z,7.80
2023-03-11T04:26:08.406Z,7.33
2023-03-11T04:28:35.008Z,9.47
2023-03-11T04:31:02.049Z,5.93
2023-03-11T04:33:31.647Z,3.57
2023-03-11T04:36:05.415Z,4.83
2023-03-11T04:38:32.237Z,5.57
2023-03-11T04:41:03.069Z,10.40
2023-03-11T04:43:30.223Z,8.50
2023-03-11T04:45:57.035Z,7.73
2023-03-11T04:48:24.883Z,7.50
2023-03-11T04:50:51.765Z,8.37
2023-03-11T04:53:18.450Z,10.87
2023-03-11T04:55:45.492Z,5.80
2023-03-11T04:58:14.557Z,4.80
2023-03-11T05:00:41.462Z,4.73
2023-03-11T05:03:10.713Z,6.57
2023-03-11T05:05:37.606Z,4.57
2023-03-11T05:08:04.608Z,10.13
2023-03-11T05:10:33.784Z,4.27
2023-03-11T05:13:00.487Z,6.27
2023-03-11T05:15:27.245Z,7.73
2023-03-11T05:17:57.218Z,4.27
2023-03-11T05:20:23.905Z,8.53
2023-03-11T05:22:52.783Z,8.23
2023-03-11T05:25:19.448Z,5.20
2023-03-11T05:27:46.255Z,10.70
2023-03-11T05:30:16.149Z,7.13
2023-03-11T05:32:43.261Z,5.77
2023-03-11T05:35:10.272Z,7.97
2023-03-11T05:37:39.347Z,4.73
2023-03-11T05:40:11.291Z,3.63
2023-03-11T05:42:41.846Z,6.40
2023-03-11T05:45:09.301Z,8.23
2023-03-11T05:47:42.375Z,4.73
2023-03-11T05:50:11.520Z,9.90
2023-03-11T05:52:40.509Z,7.87
2023-03-11T05:55:10.037Z,9.27
2023-03-11T05:57:39.281Z,5.07
2023-03-11T06:00:12.198Z,14.17
2023-03-11T06:02:41.092Z,10.60
2023-03-11T06:05:10.468Z,7.83
2023-03-11T06:07:41.212Z,6.13
2023-03-11T06:10:08.357Z,8.10
2023-03-11T06:12:35.472Z,10.10
2023-03-11T06:15:02.268Z,6.47
2023-03-11T06:17:34.936Z,4.63
2023-03-11T06:20:01.793Z,8.93
2023-03-11T06:22:30.954Z,7.73
2023-03-11T06:24:57.701Z,10.57
2023-03-11T06:27:25.013Z,6.13
2023-03-11T06:29:54.940Z,9.73
2023-03-11T06:32:21.777Z,6.77
2023-03-11T06:34:53.237Z,6.57
2023-03-11T06:37:21.342Z,8.37
2023-03-11T06:39:48.094Z,4.93
2023-03-11T06:42:15.027Z,6.13
2023-03-11T06:44:41.779Z,5.27
2023-03-11T06:47:08.481Z,8.43
2023-03-11T06:49:35.374Z,8.50
2023-03-11T06:52:02.025Z,6.13
2023-03-11T06:54:31.085Z,4.70
2023-03-11T06:57:00.172Z,8.43
2023-03-11T06:59:28.379Z,7.40
2023-03-11T07:01:55.735Z,8.00
2023-03-11T07:04:22.536Z,6.63
2023-03-11T07:06:51.549Z,13.87
2023-03-11T07:09:18.325Z,4.20
2023-03-11T07:11:45.092Z,10.57
2023-03-11T07:14:11.835Z,4.57
2023-03-11T07:16:39.368Z,6.93
2023-03-11T07:19:09.824Z,5.20
2023-03-11T07:21:36.770Z,6.30
2023-03-11T07:24:04.697Z,7.13
2023-03-11T07:26:33.486Z,6.30
2023-03-11T07:29:00.537Z,9.70
2023-03-11T07:31:30.577Z,5.30
2023-03-11T07:33:59.689Z,4.97
2023-03-11T07:36:27.227Z,9.33
2023-03-11T07:39:04.521Z,3.70
2023-03-11T07:41:35.739Z,6.80
2023-03-11T07:44:03.733Z,5.07
2023-03-11T07:46:31.322Z,5.27
2023-03-11T07:48:58.284Z,3.53
2023-03-11T07:51:30.170Z,4.90
2023-03-11T07:54:00.155Z,7.40
2023-03-11T07:56:29.885Z,4.70
2023-03-11T07:58:58.530Z,4.43
2023-03-11T08:01:27.407Z,9.27
2023-03-11T08:03:58.974Z,10.67
2023-03-11T08:06:32.260Z,4.87
2023-03-11T08:09:04.568Z,14.07
2023-03-11T08:11:32.340Z,9.03
2023-03-11T08:14:01.999Z,5.80
2023-03-11T08:16:28.676Z,25.40
2023-03-11T08:18:55.788Z,4.77
2023-03-11T08:21:25.720Z,10.97
2023-03-11T08:23:52.630Z,5.57
2023-03-11T08:26:24.522Z,5.37
2023-03-11T08:28:51.287Z,5.43
2023-03-11T08:31:26.437Z,6.93
2023-03-11T08:33:57.495Z,4.50
2023-03-11T08:36:27.008Z,6.13
2023-03-11T08:38:56.075Z,4.13
2023-03-11T08:41:22.652Z,3.07
2023-03-11T08:43:52.277Z,6.73
2023-03-11T08:46:24.812Z,6.03
2023-03-11T08:48:51.978Z,4.50
2023-03-11T08:51:19.166Z,3.83
2023-03-11T08:53:48.421Z,7.80
2023-03-11T08:56:15.024Z,7.07
2023-03-11T08:58:41.602Z,3.97
2023-03-11T09:01:09.399Z,6.93
2023-03-11T09:03:36.846Z,3.13
2023-03-11T09:06:09.837Z,4.15
2023-03-11T09:08:36.824Z,3.15
2023-03-11T09:11:03.480Z,4.43
2023-03-11T09:13:30.150Z,2.90
2023-03-11T09:16:01.729Z,6.53
2023-03-11T09:18:29.346Z,4.20
2023-03-11T09:20:58.460Z,3.63
2023-03-11T09:23:27.358Z,8.18
2023-03-11T09:25:54.048Z,2.70
2023-03-11T09:28:23.685Z,3.72
2023-03-11T09:30:50.278Z,7.28
2023-03-11T09:33:19.390Z,2.17
2023-03-11T09:35:48.744Z,1.25
2023-03-11T09:38:15.652Z,6.47
2023-03-11T09:40:49.187Z,5.63
2023-03-11T09:43:33.978Z,5.43
2023-03-11T09:46:26.310Z,7.75
2023-03-11T09:49:23.296Z,5.53
2023-03-11T09:52:09.079Z,3.78
2023-03-11T09:54:40.706Z,2.35
2023-03-11T09:57:12.744Z,2.72
2023-03-11T09:59:42.768Z,11.48
2023-03-11T10:02:15.757Z,2.63
2023-03-11T10:04:51.886Z,1.95
2023-03-11T10:07:23.741Z,2.25
2023-03-11T10:09:57.996Z,2.72
2023-03-11T10:12:30.500Z,3.20
2023-03-11T10:15:19.024Z,4.60
2023-03-11T10:18:17.297Z,5.70
2023-03-11T10:21:17.253Z,3.28
2023-03-11T10:24:01.663Z,2.88
2023-03-11T10:26:41.668Z,5.03
2023-03-11T10:29:36.972Z,5.03
2023-03-11T10:32:17.817Z,6.30
2023-03-11T10:34:51.981Z,1.85
2023-03-11T10:37:38.867Z,2.78
2023-03-11T10:40:23.779Z,6.75
2023-03-11T10:42:51.966Z,5.85
2023-03-11T10:45:23.556Z,5.90
2023-03-11T10:47:50.423Z,2.60
2023-03-11T10:50:19.387Z,1.80
2023-03-11T10:53:04.503Z,5.07
2023-03-11T10:55:31.163Z,3.05
2023-03-11T10:58:18.623Z,3.78
2023-03-11T11:00:45.586Z,2.47
2023-03-11T11:03:41.449Z,3.70
2023-03-11T11:06:18.957Z,3.83
2023-03-11T11:08:46.883Z,4.05
2023-03-11T11:11:31.977Z,3.72
2023-03-11T11:14:00.446Z,4.72
2023-03-11T11:16:28.690Z,4.05
2023-03-11T11:19:15.312Z,9.50
2023-03-11T11:21:52.811Z,7.03
2023-03-11T11:24:27.192Z,4.43
2023-03-11T11:27:06.803Z,3.85
2023-03-11T11:29:34.776Z,6.28
2023-03-11T11:32:24.435Z,4.13
2023-03-11T11:35:05.241Z,7.18
2023-03-11T11:37:37.803Z,8.98
2023-03-11T11:40:22.057Z,1.42
2023-03-11T11:43:04.837Z,2.75
2023-03-11T11:46:05.940Z,2.83
2023-03-11T11:48:46.037Z,2.65
2023-03-11T11:51:30.657Z,5.40
2023-03-11T11:54:01.950Z,2.28
2023-03-11T11:56:28.919Z,9.73
2023-03-11T11:58:55.698Z,1.13
2023-03-11T12:01:22.294Z,4.32
2023-03-11T12:04:23.713Z,4.22
2023-03-11T12:07:22.398Z,4.47
2023-03-11T12:09:57.988Z,2.55
2023-03-11T12:12:42.170Z,3.80
2023-03-11T12:15:16.720Z,1.95
2023-03-11T12:17:47.611Z,3.20
2023-03-11T12:20:42.192Z,4.20
2023-03-11T12:23:36.907Z,4.40
2023-03-11T12:26:22.221Z,2.20
2023-03-11T12:29:15.954Z,2.85
2023-03-11T12:31:44.429Z,3.97
2023-03-11T12:34:19.386Z,3.53
2023-03-11T12:36:48.220Z,3.47
2023-03-11T12:39:35.072Z,4.20
2023-03-11T12:42:22.503Z,4.32
2023-03-11T12:44:50.294Z,4.40
2023-03-11T12:47:22.366Z,5.15
2023-03-11T12:49:55.111Z,4.38
2023-03-11T12:52:27.619Z,3.28
2023-03-11T12:54:57.154Z,4.88
2023-03-11T12:57:37.071Z,1.63
2023-03-11T13:00:42.111Z,1.70
2023-03-11T13:03:46.794Z,4.25
2023-03-11T13:06:48.891Z,3.47
2023-03-11T13:09:19.452Z,2.72
2023-03-11T13:11:47.718Z,6.38
2023-03-11T13:14:33.781Z,5.65
2023-03-11T13:17:25.985Z,4.72
2023-03-11T13:19:55.197Z,1.67
2023-03-11T13:22:43.650Z,4.95
2023-03-11T13:25:39.718Z,2.75
2023-03-11T13:28:28.160Z,3.88
2023-03-11T13:31:19.856Z,3.03
2023-03-11T13:33:58.056Z,1.70
2023-03-11T13:36:24.852Z,5.38
2023-03-11T13:39:16.378Z,1.95
2023-03-11T13:41:45.257Z,3.50
2023-03-11T13:44:22.428Z,2.63
2023-03-11T13:46:53.019Z,4.45
2023-03-11T13:49:37.324Z,3.90
2023-03-11T13:52:09.175Z,5.78
2023-03-11T13:54:55.127Z,2.63
2023-03-11T13:57:32.541Z,4.88
2023-03-11T14:00:16.107Z,3.03
2023-03-11T14:02:51.208Z,2.95
2023-03-11T14:05:25.454Z,4.55
2023-03-11T14:07:52.127Z,4.32
2023-03-11T14:10:28.730Z,1.73
2023-03-11T14:13:16.776Z,7.28
2023-03-11T14:15:53.760Z,4.22
2023-03-11T14:18:41.652Z,5.13
2023-03-11T14:21:15.021Z,6.70
2023-03-11T14:23:45.279Z,5.15
2023-03-11T14:26:21.635Z,2.33
2023-03-11T14:28:51.331Z,2.83
2023-03-11T14:31:34.682Z,3.63
2023-03-11T14:34:25.944Z,3.08
2023-03-11T14:36:58.919Z,2.75
2023-03-11T14:39:31.893Z,6.63
2023-03-11T14:42:12.337Z,4.53
2023-03-11T14:44:43.743Z,5.13
2023-03-11T14:47:22.436Z,8.82
2023-03-11T14:49:50.777Z,5.55
2023-03-11T14:52:59.497Z,3.85
2023-03-11T14:55:36.433Z,3.63
2023-03-11T14:58:08.607Z,2.58
2023-03-11T15:00:40.358Z,5.63
2023-03-11T15:03:17.879Z,3.33
2023-03-11T15:05:49.568Z,2.63
2023-03-11T15:08:19.830Z,2.67
2023-03-11T15:11:07.617Z,1.92
2023-03-11T15:13:35.835Z,5.75
2023-03-11T15:16:07.331Z,3.88
2023-03-11T15:18:37.787Z,2.47
2023-03-11T15:21:06.339Z,8.10
2023-03-11T15:23:37.449Z,3.22
2023-03-11T15:26:05.139Z,4.97
2023-03-11T15:28:34.027Z,3.97
2023-03-11T15:31:17.624Z,1.95
2023-03-11T15:33:44.688Z,1.52
2023-03-11T15:36:35.893Z,3.28
2023-03-11T15:39:20.715Z,4.53
2023-03-11T15:42:01.126Z,4.20
2023-03-11T15:44:32.221Z,2.25
2023-03-11T15:47:01.347Z,4.13
2023-03-11T15:49:29.234Z,4.25
2023-03-11T15:52:02.524Z,4.35
2023-03-11T15:54:29.902Z,5.15
2023-03-11T15:56:58.426Z,3.40
2023-03-11T15:59:25.729Z,3.03
2023-03-11T16:01:52.315Z,4.95
2023-03-11T16:04:20.531Z,3.65
2023-03-11T16:07:02.947Z,2.03
2023-03-11T16:09:38.310Z,4.03
2023-03-11T16:12:23.035Z,3.25
2023-03-11T16:14:52.080Z,1.63
2023-03-11T16:17:19.353Z,2.90
2023-03-11T16:19:49.196Z,5.25
2023-03-11T16:22:31.150Z,1.40
2023-03-11T16:24:59.776Z,3.05
2023-03-11T16:27:28.681Z,5.03
2023-03-11T16:29:55.288Z,2.00
2023-03-11T16:32:23.051Z,5.18
2023-03-11T16:34:49.621Z,2.85
2023-03-11T16:37:20.726Z,2.38
2023-03-11T16:39:48.633Z,3.53
2023-03-11T16:42:23.198Z,1.50
2023-03-11T16:44:50.266Z,4.35
2023-03-11T16:47:17.332Z,1.63
2023-03-11T16:49:44.048Z,6.45
2023-03-11T16:52:10.757Z,4.90
2023-03-11T16:54:37.330Z,1.33
2023-03-11T16:57:04.041Z,1.77
2023-03-11T16:59:30.599Z,3.97
2023-03-11T17:01:59.686Z,3.70
2023-03-11T17:04:26.247Z,3.00
2023-03-11T17:06:52.805Z,4.07
2023-03-11T17:09:20.595Z,3.35
2023-03-11T17:11:49.943Z,2.97
2023-03-11T17:14:19.435Z,3.83
2023-03-11T17:16:46.068Z,10.55
2023-03-11T17:19:13.504Z,3.13
2023-03-11T17:21:40.138Z,4.30
2023-03-11T17:24:07.306Z,3.22
2023-03-11T17:26:34.100Z,8.10
2023-03-11T17:29:05.738Z,10.52
2023-03-11T17:31:32.339Z,6.60
2023-03-11T17:34:04.214Z,6.88
2023-03-11T17:36:31.276Z,7.35
2023-03-11T17:38:57.956Z,8.60
2023-03-11T17:41:24.552Z,8.20
2023-03-11T17:43:51.695Z,5.45
2023-03-11T17:46:19.908Z,6.22
2023-03-11T17:48:48.389Z,5.38
2023-03-11T17:51:19.884Z,4.60
2023-03-11T17:53:48.458Z,5.95
2023-03-11T17:56:17.573Z,9.32
2023-03-11T17:58:44.640Z,7.57
2023-03-11T18:01:17.268Z,9.73
2023-03-11T18:03:44.109Z,8.68
2023-03-11T18:06:11.198Z,10.57
2023-03-11T18:08:37.758Z,11.63
2023-03-11T18:11:07.352Z,6.07
2023-03-11T18:13:34.579Z,6.68
2023-03-11T18:16:04.364Z,9.38
2023-03-11T18:18:31.957Z,10.00
2023-03-11T18:21:13.623Z,8.45
2023-03-11T18:23:40.939Z,10.10
2023-03-11T18:26:08.956Z,7.95
2023-03-11T18:28:36.066Z,10.07
2023-03-11T18:31:07.863Z,12.57
2023-03-11T18:33:35.128Z,12.82
2023-03-11T18:36:12.168Z,20.90
2023-03-11T18:38:38.926Z,17.43
2023-03-11T18:41:07.802Z,20.13
2023-03-11T18:43:34.758Z,18.30
2023-03-11T18:46:02.297Z,43.40
2023-03-11T18:48:33.809Z,45.65
2023-03-11T18:51:00.360Z,38.10
2023-03-11T18:53:27.281Z,33.33
2023-03-11T18:56:03.115Z,34.77
2023-03-11T18:58:35.082Z,28.73
2023-03-11T19:01:19.371Z,31.07
2023-03-11T19:03:51.083Z,33.10
2023-03-11T19:06:21.336Z,29.40
2023-03-11T19:08:50.952Z,30.30
2023-03-11T19:11:20.601Z,25.73
2023-03-11T19:13:48.050Z,34.73
2023-03-11T19:16:17.871Z,31.87
2023-03-11T19:18:45.032Z,35.30
2023-03-11T19:21:13.298Z,32.23
2023-03-11T19:23:40.480Z,29.67
2023-03-11T19:26:07.869Z,26.40
2023-03-11T19:28:34.599Z,25.87
2023-03-11T19:31:01.935Z,26.90
2023-03-11T19:33:28.765Z,27.33
2023-03-11T19:36:06.431Z,45.00
2023-03-11T19:38:33.776Z,56.67
2023-03-11T19:41:08.032Z,63.33
2023-03-11T19:43:35.943Z,48.30
2023-03-11T19:46:09.356Z,44.00
2023-03-11T19:48:38.671Z,44.33
2023-03-11T19:51:08.099Z,38.03
2023-03-11T19:53:37.886Z,38.17
2023-03-11T19:56:08.776Z,40.67
2023-03-11T19:58:36.120Z,38.60
2023-03-11T20:01:02.790Z,32.80
2023-03-11T20:03:32.023Z,25.03
2023-03-11T20:06:05.353Z,24.67
2023-03-11T20:08:36.651Z,24.37
2023-03-11T20:11:07.214Z,23.10
2023-03-11T20:13:38.209Z,25.03
2023-03-11T20:16:10.415Z,23.00
2023-03-11T20:18:37.410Z,18.77
2023-03-11T20:21:05.951Z,21.27
2023-03-11T20:23:32.956Z,23.07
2023-03-11T20:25:59.568Z,27.63
2023-03-11T20:28:26.292Z,22.87
2023-03-11T20:30:55.793Z,16.73
2023-03-11T20:33:22.444Z,24.07
2023-03-11T20:35:49.090Z,24.83
2023-03-11T20:38:15.882Z,29.57
2023-03-11T20:40:42.533Z,18.47
2023-03-11T20:43:09.179Z,20.47
2023-03-11T20:45:40.754Z,22.60
2023-03-11T20:48:07.598Z,19.03
2023-03-11T20:50:34.403Z,22.52
2023-03-11T20:53:01.169Z,20.80
2023-03-11T20:55:28.085Z,23.33
2023-03-11T20:57:55.060Z,20.93
2023-03-11T21:00:22.018Z,27.60
2023-03-11T21:02:51.259Z,28.53
2023-03-11T21:05:18.142Z,28.00
2023-03-11T21:07:44.916Z,25.53
2023-03-11T21:10:12.750Z,26.27
2023-03-11T21:12:42.425Z,28.77
2023-03-11T21:15:10.256Z,27.53
2023-03-11T21:17:37.433Z,30.63
2023-03-11T21:20:06.421Z,30.57
2023-03-11T21:22:33.781Z,28.23
2023-03-11T21:25:00.627Z,23.80
2023-03-11T21:27:27.657Z,24.53
2023-03-11T21:30:00.060Z,22.53
2023-03-11T21:32:28.666Z,23.07
2023-03-11T21:34:59.638Z,23.67
2023-03-11T21:37:27.567Z,22.63
2023-03-11T21:39:54.631Z,21.27
2023-03-11T21:42:21.871Z,24.50
2023-03-11T21:44:48.879Z,26.10
2023-03-11T21:47:15.632Z,30.37
2023-03-11T21:49:42.298Z,25.50
2023-03-11T21:52:11.076Z,16.90
2023-03-11T21:54:37.856Z,19.80
2023-03-11T21:57:06.884Z,14.07
2023-03-11T21:59:33.721Z,16.73
2023-03-11T22:02:03.348Z,14.43
2023-03-11T22:04:31.585Z,15.47
2023-03-11T22:06:58.551Z,12.83
2023-03-11T22:09:26.289Z,13.90
2023-03-11T22:11:53.499Z,13.20
2023-03-11T22:14:20.391Z,12.90
2023-03-11T22:16:49.573Z,12.63
2023-03-11T22:19:16.583Z,13.57
2023-03-11T22:21:45.877Z,12.73
2023-03-11T22:24:12.534Z,15.50
2023-03-11T22:26:39.164Z,9.63
2023-03-11T22:29:08.548Z,11.50
2023-03-11T22:31:35.728Z,12.77
2023-03-11T22:34:02.478Z,9.57
2023-03-11T22:36:32.136Z,13.40
2023-03-11T22:38:58.884Z,11.13
2023-03-11T22:41:25.541Z,13.40
2023-03-11T22:43:54.467Z,10.50
2023-03-11T22:46:21.136Z,13.63
2023-03-11T22:48:48.368Z,11.43
2023-03-11T22:51:15.051Z,11.77
2023-03-11T22:53:41.810Z,7.77
2023-03-11T22:56:11.485Z,12.60
2023-03-11T22:58:40.632Z,13.97
2023-03-11T23:01:08.024Z,11.57
2023-03-11T23:03:38.034Z,12.07
2023-03-11T23:06:10.874Z,9.43
2023-03-11T23:08:40.187Z,12.50
2023-03-11T23:11:14.520Z,10.37
2023-03-11T23:13:42.527Z,12.83
2023-03-11T23:16:21.704Z,9.27
2023-03-11T23:18:51.187Z,15.67
2023-03-11T23:21:30.901Z,10.17
2023-03-11T23:24:00.014Z,9.20
2023-03-11T23:26:27.526Z,10.13
2023-03-11T23:28:54.406Z,13.00
2023-03-11T23:31:25.946Z,11.53
2023-03-11T23:33:55.372Z,9.30
2023-03-11T23:36:23.749Z,12.20
2023-03-11T23:38:51.043Z,13.47
2023-03-11T23:41:19.646Z,8.20
2023-03-11T23:43:46.440Z,8.07
2023-03-11T23:46:13.962Z,8.03
2023-03-11T23:48:41.130Z,7.73
2023-03-11T23:51:11.078Z,10.30
2023-03-11T23:53:38.460Z,7.03
2023-03-11T23:56:10.976Z,8.57
2023-03-11T23:58:37.568Z,7.43
